sensor_id;sensor_type;location;lat;lon;timestamp;P1;durP1;ratioP1;P2;durP2;ratioP2
39654;SDS011;25336;59.944;11.010;2022-12-18T00:02:14;52.13;;;27.42;;
39654;SDS011;25336;59.944;11.010;2022-12-18T00:04:39;52.85;;;25.95;;
39654;SDS011;25336;59.944;11.010;2022-12-18T00:07:05;47.75;;;23.67;;
39654;SDS011;25336;59.944;11.010;2022-12-18T00:09:31;45.83;;;20.00;;
39654;SDS011;25336;59.944;11.010;2022-12-18T00:11:57;57.22;;;23.40;;
39654;SDS011;25336;59.944;11.010;2022-12-18T00:14:22;48.65;;;22.00;;
39654;SDS011;25336;59.944;11.010;2022-12-18T00:16:48;45.90;;;23.02;;
39654;SDS011;25336;59.944;11.010;2022-12-18T00:19:13;52.28;;;22.45;;
39654;SDS011;25336;59.944;11.010;2022-12-18T00:21:40;44.65;;;21.95;;
39654;SDS011;25336;59.944;11.010;2022-12-18T00:24:06;50.13;;;22.20;;
39654;SDS011;25336;59.944;11.010;2022-12-18T00:26:32;50.35;;;23.50;;
39654;SDS011;25336;59.944;11.010;2022-12-18T00:29:03;46.10;;;24.33;;
39654;SDS011;25336;59.944;11.010;2022-12-18T00:31:31;56.08;;;23.70;;
39654;SDS011;25336;59.944;11.010;2022-12-18T00:33:57;47.72;;;21.95;;
39654;SDS011;25336;59.944;11.010;2022-12-18T00:36:25;44.00;;;22.00;;
39654;SDS011;25336;59.944;11.010;2022-12-18T00:38:53;43.15;;;21.05;;
39654;SDS011;25336;59.944;11.010;2022-12-18T00:41:20;54.90;;;24.67;;
39654;SDS011;25336;59.944;11.010;2022-12-18T00:44:06;40.15;;;22.08;;
39654;SDS011;25336;59.944;11.010;2022-12-18T00:46:33;44.38;;;20.95;;
39654;SDS011;25336;59.944;11.010;2022-12-18T00:48:58;48.08;;;23.48;;
39654;SDS011;25336;59.944;11.010;2022-12-18T00:51:24;39.08;;;21.02;;
39654;SDS011;25336;59.944;11.010;2022-12-18T00:53:50;41.95;;;21.65;;
39654;SDS011;25336;59.944;11.010;2022-12-18T00:56:16;40.85;;;20.48;;
39654;SDS011;25336;59.944;11.010;2022-12-18T00:58:41;36.20;;;20.33;;
39654;SDS011;25336;59.944;11.010;2022-12-18T01:01:07;48.88;;;22.15;;
39654;SDS011;25336;59.944;11.010;2022-12-18T01:03:33;38.25;;;21.02;;
39654;SDS011;25336;59.944;11.010;2022-12-18T01:05:59;40.47;;;20.35;;
39654;SDS011;25336;59.944;11.010;2022-12-18T01:08:29;46.00;;;24.57;;
39654;SDS011;25336;59.944;11.010;2022-12-18T01:10:55;40.50;;;21.73;;
39654;SDS011;25336;59.944;11.010;2022-12-18T01:13:21;39.58;;;21.02;;
39654;SDS011;25336;59.944;11.010;2022-12-18T01:15:49;40.88;;;19.02;;
39654;SDS011;25336;59.944;11.010;2022-12-18T01:18:15;40.67;;;19.05;;
39654;SDS011;25336;59.944;11.010;2022-12-18T01:20:41;43.03;;;20.92;;
39654;SDS011;25336;59.944;11.010;2022-12-18T01:23:07;40.05;;;21.27;;
39654;SDS011;25336;59.944;11.010;2022-12-18T01:25:32;51.45;;;20.02;;
39654;SDS011;25336;59.944;11.010;2022-12-18T01:27:58;43.42;;;26.05;;
39654;SDS011;25336;59.944;11.010;2022-12-18T01:30:24;62.92;;;32.03;;
39654;SDS011;25336;59.944;11.010;2022-12-18T01:32:49;70.85;;;34.88;;
39654;SDS011;25336;59.944;11.010;2022-12-18T01:35:15;45.42;;;22.02;;
39654;SDS011;25336;59.944;11.010;2022-12-18T01:37:40;43.25;;;22.50;;
39654;SDS011;25336;59.944;11.010;2022-12-18T01:40:06;37.15;;;18.23;;
39654;SDS011;25336;59.944;11.010;2022-12-18T01:42:32;15.35;;;8.07;;
39654;SDS011;25336;59.944;11.010;2022-12-18T01:47:46;14.13;;;5.43;;
39654;SDS011;25336;59.944;11.010;2022-12-18T01:52:51;6.03;;;4.38;;
39654;SDS011;25336;59.944;11.010;2022-12-18T01:55:22;10.93;;;4.40;;
39654;SDS011;25336;59.944;11.010;2022-12-18T01:57:53;7.05;;;4.38;;
39654;SDS011;25336;59.944;11.010;2022-12-18T02:00:22;12.27;;;4.47;;
39654;SDS011;25336;59.944;11.010;2022-12-18T02:02:48;8.45;;;4.25;;
39654;SDS011;25336;59.944;11.010;2022-12-18T02:05:18;9.68;;;4.72;;
39654;SDS011;25336;59.944;11.010;2022-12-18T02:07:55;11.73;;;4.15;;
39654;SDS011;25336;59.944;11.010;2022-12-18T02:10:48;8.90;;;4.63;;
39654;SDS011;25336;59.944;11.010;2022-12-18T02:18:59;10.65;;;4.13;;
39654;SDS011;25336;59.944;11.010;2022-12-18T02:21:54;6.47;;;2.83;;
39654;SDS011;25336;59.944;11.010;2022-12-18T02:27:09;9.35;;;3.28;;
39654;SDS011;25336;59.944;11.010;2022-12-18T02:29:40;9.00;;;3.88;;
39654;SDS011;25336;59.944;11.010;2022-12-18T02:32:15;8.15;;;3.13;;
39654;SDS011;25336;59.944;11.010;2022-12-18T02:34:47;9.75;;;3.30;;
39654;SDS011;25336;59.944;11.010;2022-12-18T02:37:16;5.68;;;3.40;;
39654;SDS011;25336;59.944;11.010;2022-12-18T02:39:43;10.27;;;4.40;;
39654;SDS011;25336;59.944;11.010;2022-12-18T02:42:11;7.47;;;3.15;;
39654;SDS011;25336;59.944;11.010;2022-12-18T02:44:47;9.10;;;4.07;;
39654;SDS011;25336;59.944;11.010;2022-12-18T02:47:15;6.32;;;2.75;;
39654;SDS011;25336;59.944;11.010;2022-12-18T02:49:51;9.27;;;2.53;;
39654;SDS011;25336;59.944;11.010;2022-12-18T02:55:43;9.38;;;2.78;;
39654;SDS011;25336;59.944;11.010;2022-12-18T03:01:02;6.45;;;2.47;;
39654;SDS011;25336;59.944;11.010;2022-12-18T03:03:46;4.97;;;2.58;;
39654;SDS011;25336;59.944;11.010;2022-12-18T03:08:58;10.75;;;3.33;;
39654;SDS011;25336;59.944;11.010;2022-12-18T03:11:28;5.57;;;2.10;;
39654;SDS011;25336;59.944;11.010;2022-12-18T03:14:16;8.75;;;2.60;;
39654;SDS011;25336;59.944;11.010;2022-12-18T03:16:45;10.95;;;3.03;;
39654;SDS011;25336;59.944;11.010;2022-12-18T03:19:15;11.73;;;2.35;;
39654;SDS011;25336;59.944;11.010;2022-12-18T03:21:46;9.68;;;3.17;;
39654;SDS011;25336;59.944;11.010;2022-12-18T03:24:15;10.27;;;2.85;;
39654;SDS011;25336;59.944;11.010;2022-12-18T03:26:43;9.73;;;2.45;;
39654;SDS011;25336;59.944;11.010;2022-12-18T03:29:12;7.20;;;2.78;;
39654;SDS011;25336;59.944;11.010;2022-12-18T03:31:45;9.15;;;2.47;;
39654;SDS011;25336;59.944;11.010;2022-12-18T03:34:28;6.85;;;2.50;;
39654;SDS011;25336;59.944;11.010;2022-12-18T03:36:56;10.93;;;3.05;;
39654;SDS011;25336;59.944;11.010;2022-12-18T03:39:23;11.27;;;2.70;;
39654;SDS011;25336;59.944;11.010;2022-12-18T03:41:57;8.35;;;2.45;;
39654;SDS011;25336;59.944;11.010;2022-12-18T03:52:36;5.50;;;2.20;;
39654;SDS011;25336;59.944;11.010;2022-12-18T03:55:05;3.97;;;2.10;;
39654;SDS011;25336;59.944;11.010;2022-12-18T03:57:34;5.00;;;1.80;;
39654;SDS011;25336;59.944;11.010;2022-12-18T04:00:05;5.03;;;1.83;;
39654;SDS011;25336;59.944;11.010;2022-12-18T04:02:33;2.22;;;1.52;;
39654;SDS011;25336;59.944;11.010;2022-12-18T04:05:02;4.05;;;2.10;;
39654;SDS011;25336;59.944;11.010;2022-12-18T04:07:30;5.88;;;2.50;;
39654;SDS011;25336;59.944;11.010;2022-12-18T04:09:57;4.13;;;2.10;;
39654;SDS011;25336;59.944;11.010;2022-12-18T04:12:25;4.68;;;1.58;;
39654;SDS011;25336;59.944;11.010;2022-12-18T04:14:51;3.20;;;1.83;;
39654;SDS011;25336;59.944;11.010;2022-12-18T04:17:17;5.03;;;1.88;;
39654;SDS011;25336;59.944;11.010;2022-12-18T04:19:43;6.55;;;2.30;;
39654;SDS011;25336;59.944;11.010;2022-12-18T04:22:09;3.20;;;1.73;;
39654;SDS011;25336;59.944;11.010;2022-12-18T04:24:35;6.07;;;1.83;;
39654;SDS011;25336;59.944;11.010;2022-12-18T04:27:01;3.97;;;1.65;;
39654;SDS011;25336;59.944;11.010;2022-12-18T04:29:27;5.38;;;1.70;;
39654;SDS011;25336;59.944;11.010;2022-12-18T04:31:53;4.75;;;2.25;;
39654;SDS011;25336;59.944;11.010;2022-12-18T04:34:19;6.00;;;2.08;;
39654;SDS011;25336;59.944;11.010;2022-12-18T04:36:45;2.78;;;1.90;;
39654;SDS011;25336;59.944;11.010;2022-12-18T04:39:11;6.25;;;1.73;;
39654;SDS011;25336;59.944;11.010;2022-12-18T04:41:36;5.00;;;2.45;;
39654;SDS011;25336;59.944;11.010;2022-12-18T04:44:02;2.58;;;1.45;;
39654;SDS011;25336;59.944;11.010;2022-12-18T04:46:28;5.20;;;2.05;;
39654;SDS011;25336;59.944;11.010;2022-12-18T04:48:54;3.55;;;1.88;;
39654;SDS011;25336;59.944;11.010;2022-12-18T04:51:19;5.53;;;1.70;;
39654;SDS011;25336;59.944;11.010;2022-12-18T04:53:45;3.42;;;1.50;;
39654;SDS011;25336;59.944;11.010;2022-12-18T04:56:14;5.35;;;1.63;;
39654;SDS011;25336;59.944;11.010;2022-12-18T04:58:40;4.22;;;1.67;;
39654;SDS011;25336;59.944;11.010;2022-12-18T05:01:07;4.80;;;3.47;;
39654;SDS011;25336;59.944;11.010;2022-12-18T05:03:33;3.47;;;1.73;;
39654;SDS011;25336;59.944;11.010;2022-12-18T05:05:59;3.95;;;1.95;;
39654;SDS011;25336;59.944;11.010;2022-12-18T05:08:25;4.40;;;1.77;;
39654;SDS011;25336;59.944;11.010;2022-12-18T05:10:58;4.05;;;2.00;;
39654;SDS011;25336;59.944;11.010;2022-12-18T05:13:25;3.83;;;1.75;;
39654;SDS011;25336;59.944;11.010;2022-12-18T05:15:51;2.90;;;1.70;;
39654;SDS011;25336;59.944;11.010;2022-12-18T05:18:17;3.90;;;1.40;;
39654;SDS011;25336;59.944;11.010;2022-12-18T05:20:43;3.03;;;1.60;;
39654;SDS011;25336;59.944;11.010;2022-12-18T05:23:08;4.85;;;2.10;;
39654;SDS011;25336;59.944;11.010;2022-12-18T05:25:34;5.03;;;2.13;;
39654;SDS011;25336;59.944;11.010;2022-12-18T05:27:59;6.15;;;1.60;;
39654;SDS011;25336;59.944;11.010;2022-12-18T05:30:25;4.93;;;2.08;;
39654;SDS011;25336;59.944;11.010;2022-12-18T05:32:51;4.93;;;1.70;;
39654;SDS011;25336;59.944;11.010;2022-12-18T05:35:16;5.70;;;2.20;;
39654;SDS011;25336;59.944;11.010;2022-12-18T05:37:42;6.80;;;2.20;;
39654;SDS011;25336;59.944;11.010;2022-12-18T05:40:07;4.22;;;1.75;;
39654;SDS011;25336;59.944;11.010;2022-12-18T05:42:33;3.45;;;1.65;;
39654;SDS011;25336;59.944;11.010;2022-12-18T05:44:59;2.13;;;1.60;;
39654;SDS011;25336;59.944;11.010;2022-12-18T05:47:26;2.72;;;1.70;;
39654;SDS011;25336;59.944;11.010;2022-12-18T05:49:53;4.38;;;1.70;;
39654;SDS011;25336;59.944;11.010;2022-12-18T05:52:18;6.55;;;2.20;;
39654;SDS011;25336;59.944;11.010;2022-12-18T05:54:44;5.25;;;1.60;;
39654;SDS011;25336;59.944;11.010;2022-12-18T05:57:09;5.28;;;1.65;;
39654;SDS011;25336;59.944;11.010;2022-12-18T05:59:35;1.92;;;1.48;;
39654;SDS011;25336;59.944;11.010;2022-12-18T06:02:00;3.80;;;2.05;;
39654;SDS011;25336;59.944;11.010;2022-12-18T06:04:27;4.63;;;1.73;;
39654;SDS011;25336;59.944;11.010;2022-12-18T06:06:55;4.57;;;2.08;;
39654;SDS011;25336;59.944;11.010;2022-12-18T06:09:21;3.10;;;1.50;;
39654;SDS011;25336;59.944;11.010;2022-12-18T06:11:46;2.92;;;1.70;;
39654;SDS011;25336;59.944;11.010;2022-12-18T06:14:12;2.30;;;1.42;;
39654;SDS011;25336;59.944;11.010;2022-12-18T06:16:42;3.80;;;1.60;;
39654;SDS011;25336;59.944;11.010;2022-12-18T06:19:07;3.95;;;1.58;;
39654;SDS011;25336;59.944;11.010;2022-12-18T06:21:38;3.53;;;1.70;;
39654;SDS011;25336;59.944;11.010;2022-12-18T06:24:04;6.88;;;1.80;;
39654;SDS011;25336;59.944;11.010;2022-12-18T06:26:30;2.83;;;1.38;;
39654;SDS011;25336;59.944;11.010;2022-12-18T06:28:58;4.10;;;1.50;;
39654;SDS011;25336;59.944;11.010;2022-12-18T06:31:24;7.00;;;1.80;;
39654;SDS011;25336;59.944;11.010;2022-12-18T06:33:50;2.35;;;1.58;;
39654;SDS011;25336;59.944;11.010;2022-12-18T06:36:16;3.17;;;1.60;;
39654;SDS011;25336;59.944;11.010;2022-12-18T06:38:42;4.07;;;1.58;;
39654;SDS011;25336;59.944;11.010;2022-12-18T06:41:12;2.97;;;1.42;;
39654;SDS011;25336;59.944;11.010;2022-12-18T06:43:41;4.03;;;1.40;;
39654;SDS011;25336;59.944;11.010;2022-12-18T06:46:06;3.90;;;1.80;;
39654;SDS011;25336;59.944;11.010;2022-12-18T06:48:33;2.20;;;1.17;;
39654;SDS011;25336;59.944;11.010;2022-12-18T06:50:59;3.60;;;1.58;;
39654;SDS011;25336;59.944;11.010;2022-12-18T06:53:25;4.70;;;2.53;;
39654;SDS011;25336;59.944;11.010;2022-12-18T06:55:50;3.63;;;1.70;;
39654;SDS011;25336;59.944;11.010;2022-12-18T06:58:16;4.97;;;1.67;;
39654;SDS011;25336;59.944;11.010;2022-12-18T07:00:42;2.33;;;1.40;;
39654;SDS011;25336;59.944;11.010;2022-12-18T07:03:08;3.47;;;1.58;;
39654;SDS011;25336;59.944;11.010;2022-12-18T07:05:33;1.55;;;1.33;;
39654;SDS011;25336;59.944;11.010;2022-12-18T07:07:59;2.20;;;1.40;;
39654;SDS011;25336;59.944;11.010;2022-12-18T07:10:25;3.17;;;1.60;;
39654;SDS011;25336;59.944;11.010;2022-12-18T07:12:51;6.63;;;2.85;;
39654;SDS011;25336;59.944;11.010;2022-12-18T07:15:17;1.73;;;1.50;;
39654;SDS011;25336;59.944;11.010;2022-12-18T07:17:42;2.40;;;1.55;;
39654;SDS011;25336;59.944;11.010;2022-12-18T07:20:08;4.55;;;1.58;;
39654;SDS011;25336;59.944;11.010;2022-12-18T07:22:34;2.65;;;1.92;;
39654;SDS011;25336;59.944;11.010;2022-12-18T07:25:00;2.60;;;1.20;;
39654;SDS011;25336;59.944;11.010;2022-12-18T07:27:25;3.72;;;1.40;;
39654;SDS011;25336;59.944;11.010;2022-12-18T07:29:51;5.53;;;1.63;;
39654;SDS011;25336;59.944;11.010;2022-12-18T07:32:17;3.35;;;1.80;;
39654;SDS011;25336;59.944;11.010;2022-12-18T07:34:42;1.63;;;1.30;;
39654;SDS011;25336;59.944;11.010;2022-12-18T07:37:08;2.58;;;1.38;;
39654;SDS011;25336;59.944;11.010;2022-12-18T07:39:33;7.03;;;1.98;;
39654;SDS011;25336;59.944;11.010;2022-12-18T07:41:59;3.13;;;2.50;;
39654;SDS011;25336;59.944;11.010;2022-12-18T07:44:43;3.50;;;1.70;;
39654;SDS011;25336;59.944;11.010;2022-12-18T07:47:09;10.82;;;4.85;;
39654;SDS011;25336;59.944;11.010;2022-12-18T07:49:35;5.63;;;2.55;;
39654;SDS011;25336;59.944;11.010;2022-12-18T07:52:00;8.55;;;4.38;;
39654;SDS011;25336;59.944;11.010;2022-12-18T07:54:26;3.10;;;1.65;;
39654;SDS011;25336;59.944;11.010;2022-12-18T07:56:52;3.70;;;1.42;;
39654;SDS011;25336;59.944;11.010;2022-12-18T07:59:18;3.47;;;1.65;;
39654;SDS011;25336;59.944;11.010;2022-12-18T08:01:44;6.60;;;2.97;;
39654;SDS011;25336;59.944;11.010;2022-12-18T08:04:10;3.38;;;2.05;;
39654;SDS011;25336;59.944;11.010;2022-12-18T08:06:35;5.28;;;2.10;;
39654;SDS011;25336;59.944;11.010;2022-12-18T08:09:01;2.75;;;1.58;;
39654;SDS011;25336;59.944;11.010;2022-12-18T08:11:27;2.45;;;1.55;;
39654;SDS011;25336;59.944;11.010;2022-12-18T08:13:53;4.22;;;1.60;;
39654;SDS011;25336;59.944;11.010;2022-12-18T08:16:20;3.17;;;1.48;;
39654;SDS011;25336;59.944;11.010;2022-12-18T08:18:46;4.60;;;1.40;;
39654;SDS011;25336;59.944;11.010;2022-12-18T08:21:14;4.05;;;1.55;;
39654;SDS011;25336;59.944;11.010;2022-12-18T08:23:45;2.80;;;1.50;;
39654;SDS011;25336;59.944;11.010;2022-12-18T08:26:11;3.00;;;1.58;;
39654;SDS011;25336;59.944;11.010;2022-12-18T08:28:37;5.25;;;1.60;;
39654;SDS011;25336;59.944;11.010;2022-12-18T08:31:03;3.80;;;1.80;;
39654;SDS011;25336;59.944;11.010;2022-12-18T08:33:29;2.30;;;1.48;;
39654;SDS011;25336;59.944;11.010;2022-12-18T08:35:54;9.50;;;4.10;;
39654;SDS011;25336;59.944;11.010;2022-12-18T08:38:20;12.95;;;4.60;;
39654;SDS011;25336;59.944;11.010;2022-12-18T08:40:46;7.32;;;2.75;;
39654;SDS011;25336;59.944;11.010;2022-12-18T08:43:11;6.32;;;2.45;;
39654;SDS011;25336;59.944;11.010;2022-12-18T08:45:56;10.70;;;4.25;;
39654;SDS011;25336;59.944;11.010;2022-12-18T08:48:22;7.78;;;3.78;;
39654;SDS011;25336;59.944;11.010;2022-12-18T08:50:57;7.25;;;2.40;;
39654;SDS011;25336;59.944;11.010;2022-12-18T08:53:23;6.90;;;2.40;;
39654;SDS011;25336;59.944;11.010;2022-12-18T08:55:49;8.05;;;3.35;;
39654;SDS011;25336;59.944;11.010;2022-12-18T08:58:15;4.40;;;2.60;;
39654;SDS011;25336;59.944;11.010;2022-12-18T09:00:40;6.35;;;1.85;;
39654;SDS011;25336;59.944;11.010;2022-12-18T09:03:10;3.53;;;1.90;;
39654;SDS011;25336;59.944;11.010;2022-12-18T09:05:37;4.88;;;2.42;;
39654;SDS011;25336;59.944;11.010;2022-12-18T09:08:03;5.32;;;1.98;;
39654;SDS011;25336;59.944;11.010;2022-12-18T09:10:29;5.50;;;2.65;;
39654;SDS011;25336;59.944;11.010;2022-12-18T09:12:54;8.88;;;3.95;;
39654;SDS011;25336;59.944;11.010;2022-12-18T09:15:21;18.95;;;7.20;;
39654;SDS011;25336;59.944;11.010;2022-12-18T09:17:47;9.85;;;3.92;;
39654;SDS011;25336;59.944;11.010;2022-12-18T09:20:13;7.93;;;3.97;;
39654;SDS011;25336;59.944;11.010;2022-12-18T09:22:38;7.93;;;2.90;;
39654;SDS011;25336;59.944;11.010;2022-12-18T09:25:04;8.05;;;2.10;;
39654;SDS011;25336;59.944;11.010;2022-12-18T09:27:32;5.60;;;2.53;;
39654;SDS011;25336;59.944;11.010;2022-12-18T09:29:59;10.13;;;2.95;;
39654;SDS011;25336;59.944;11.010;2022-12-18T09:32:25;6.55;;;2.08;;
39654;SDS011;25336;59.944;11.010;2022-12-18T09:34:50;4.18;;;1.90;;
39654;SDS011;25336;59.944;11.010;2022-12-18T09:37:16;6.53;;;1.77;;
39654;SDS011;25336;59.944;11.010;2022-12-18T09:39:42;7.25;;;2.63;;
39654;SDS011;25336;59.944;11.010;2022-12-18T09:42:09;7.65;;;3.65;;
39654;SDS011;25336;59.944;11.010;2022-12-18T09:44:47;6.97;;;2.97;;
39654;SDS011;25336;59.944;11.010;2022-12-18T09:50:03;6.97;;;3.10;;
39654;SDS011;25336;59.944;11.010;2022-12-18T09:52:40;7.97;;;3.25;;
39654;SDS011;25336;59.944;11.010;2022-12-18T09:57:56;7.47;;;3.65;;
39654;SDS011;25336;59.944;11.010;2022-12-18T10:00:36;6.75;;;3.80;;
39654;SDS011;25336;59.944;11.010;2022-12-18T10:03:03;6.70;;;4.00;;
39654;SDS011;25336;59.944;11.010;2022-12-18T10:08:14;10.07;;;4.35;;
39654;SDS011;25336;59.944;11.010;2022-12-18T10:10:53;7.88;;;3.70;;
39654;SDS011;25336;59.944;11.010;2022-12-18T10:13:30;5.53;;;2.97;;
39654;SDS011;25336;59.944;11.010;2022-12-18T10:22:20;3.63;;;2.20;;
39654;SDS011;25336;59.944;11.010;2022-12-18T10:25:26;2.75;;;1.77;;
39654;SDS011;25336;59.944;11.010;2022-12-18T10:28:07;4.10;;;2.17;;
39654;SDS011;25336;59.944;11.010;2022-12-18T10:30:37;3.47;;;1.90;;
39654;SDS011;25336;59.944;11.010;2022-12-18T10:33:04;6.88;;;2.33;;
39654;SDS011;25336;59.944;11.010;2022-12-18T10:35:30;4.85;;;2.42;;
39654;SDS011;25336;59.944;11.010;2022-12-18T10:37:59;8.10;;;2.78;;
39654;SDS011;25336;59.944;11.010;2022-12-18T10:40:31;9.80;;;4.10;;
39654;SDS011;25336;59.944;11.010;2022-12-18T10:51:19;7.43;;;3.60;;
39654;SDS011;25336;59.944;11.010;2022-12-18T10:53:51;8.23;;;3.20;;
39654;SDS011;25336;59.944;11.010;2022-12-18T10:56:20;5.95;;;3.08;;
39654;SDS011;25336;59.944;11.010;2022-12-18T10:58:55;6.47;;;2.20;;
39654;SDS011;25336;59.944;11.010;2022-12-18T11:01:22;5.47;;;2.83;;
39654;SDS011;25336;59.944;11.010;2022-12-18T11:06:20;9.05;;;2.65;;
39654;SDS011;25336;59.944;11.010;2022-12-18T11:08:59;4.38;;;2.75;;
39654;SDS011;25336;59.944;11.010;2022-12-18T11:11:27;4.53;;;2.42;;
39654;SDS011;25336;59.944;11.010;2022-12-18T11:13:56;5.25;;;2.65;;
39654;SDS011;25336;59.944;11.010;2022-12-18T11:16:26;8.27;;;2.38;;
39654;SDS011;25336;59.944;11.010;2022-12-18T11:18:53;3.80;;;2.65;;
39654;SDS011;25336;59.944;11.010;2022-12-18T11:21:19;8.77;;;1.98;;
39654;SDS011;25336;59.944;11.010;2022-12-18T11:23:52;5.40;;;2.38;;
39654;SDS011;25336;59.944;11.010;2022-12-18T11:26:19;8.00;;;2.50;;
39654;SDS011;25336;59.944;11.010;2022-12-18T11:31:35;7.15;;;3.30;;
39654;SDS011;25336;59.944;11.010;2022-12-18T11:36:46;14.25;;;3.47;;
39654;SDS011;25336;59.944;11.010;2022-12-18T11:39:17;3.85;;;2.42;;
39654;SDS011;25336;59.944;11.010;2022-12-18T11:42:05;2.72;;;1.70;;
39654;SDS011;25336;59.944;11.010;2022-12-18T11:47:35;4.00;;;1.70;;
39654;SDS011;25336;59.944;11.010;2022-12-18T11:50:13;3.83;;;2.25;;
39654;SDS011;25336;59.944;11.010;2022-12-18T11:53:02;4.30;;;1.75;;
39654;SDS011;25336;59.944;11.010;2022-12-18T12:33:52;8.52;;;3.60;;
39654;SDS011;25336;59.944;11.010;2022-12-18T12:38:49;12.93;;;5.38;;
39654;SDS011;25336;59.944;11.010;2022-12-18T12:41:20;16.55;;;5.10;;
39654;SDS011;25336;59.944;11.010;2022-12-18T12:44:09;10.68;;;5.75;;
39654;SDS011;25336;59.944;11.010;2022-12-18T12:46:41;12.55;;;5.80;;
39654;SDS011;25336;59.944;11.010;2022-12-18T12:49:15;7.60;;;3.47;;
39654;SDS011;25336;59.944;11.010;2022-12-18T12:51:43;8.93;;;3.72;;
39654;SDS011;25336;59.944;11.010;2022-12-18T12:54:21;6.55;;;3.50;;
39654;SDS011;25336;59.944;11.010;2022-12-18T12:59:26;2.55;;;2.20;;
39654;SDS011;25336;59.944;11.010;2022-12-18T13:08:28;5.18;;;2.35;;
39654;SDS011;25336;59.944;11.010;2022-12-18T13:10:56;3.97;;;2.58;;
39654;SDS011;25336;59.944;11.010;2022-12-18T13:13:55;4.47;;;2.30;;
39654;SDS011;25336;59.944;11.010;2022-12-18T13:16:22;5.75;;;2.55;;
39654;SDS011;25336;59.944;11.010;2022-12-18T13:18:53;4.25;;;2.28;;
39654;SDS011;25336;59.944;11.010;2022-12-18T13:23:55;4.43;;;3.00;;
39654;SDS011;25336;59.944;11.010;2022-12-18T13:41:46;1.95;;;1.73;;
39654;SDS011;25336;59.944;11.010;2022-12-18T13:44:32;3.53;;;2.17;;
39654;SDS011;25336;59.944;11.010;2022-12-18T13:47:05;2.97;;;2.15;;
39654;SDS011;25336;59.944;11.010;2022-12-18T13:49:56;3.45;;;2.53;;
39654;SDS011;25336;59.944;11.010;2022-12-18T13:52:26;5.05;;;3.00;;
39654;SDS011;25336;59.944;11.010;2022-12-18T13:54:58;2.92;;;2.63;;
39654;SDS011;25336;59.944;11.010;2022-12-18T13:57:33;4.40;;;3.20;;
39654;SDS011;25336;59.944;11.010;2022-12-18T14:02:50;12.82;;;9.02;;
39654;SDS011;25336;59.944;11.010;2022-12-18T14:05:23;9.43;;;5.20;;
39654;SDS011;25336;59.944;11.010;2022-12-18T14:07:48;8.18;;;3.85;;
39654;SDS011;25336;59.944;11.010;2022-12-18T14:10:15;7.95;;;3.58;;
39654;SDS011;25336;59.944;11.010;2022-12-18T14:12:44;6.88;;;3.38;;
39654;SDS011;25336;59.944;11.010;2022-12-18T14:15:30;10.73;;;4.90;;
39654;SDS011;25336;59.944;11.010;2022-12-18T14:20:51;8.40;;;5.10;;
39654;SDS011;25336;59.944;11.010;2022-12-18T14:23:35;15.30;;;5.97;;
39654;SDS011;25336;59.944;11.010;2022-12-18T14:28:52;10.88;;;6.20;;
39654;SDS011;25336;59.944;11.010;2022-12-18T14:31:20;12.20;;;5.30;;
39654;SDS011;25336;59.944;11.010;2022-12-18T14:33:48;10.10;;;6.22;;
39654;SDS011;25336;59.944;11.010;2022-12-18T14:36:16;11.35;;;6.57;;
39654;SDS011;25336;59.944;11.010;2022-12-18T14:38:48;26.48;;;12.35;;
39654;SDS011;25336;59.944;11.010;2022-12-18T14:43:46;27.50;;;12.60;;
39654;SDS011;25336;59.944;11.010;2022-12-18T14:48:57;16.70;;;9.18;;
39654;SDS011;25336;59.944;11.010;2022-12-18T14:51:26;18.13;;;9.25;;
39654;SDS011;25336;59.944;11.010;2022-12-18T14:53:54;16.95;;;7.93;;
39654;SDS011;25336;59.944;11.010;2022-12-18T14:56:26;16.88;;;6.70;;
39654;SDS011;25336;59.944;11.010;2022-12-18T14:59:15;8.70;;;5.40;;
39654;SDS011;25336;59.944;11.010;2022-12-18T15:04:40;10.68;;;5.03;;
39654;SDS011;25336;59.944;11.010;2022-12-18T15:12:44;12.18;;;6.00;;
39654;SDS011;25336;59.944;11.010;2022-12-18T15:21:07;16.67;;;10.77;;
39654;SDS011;25336;59.944;11.010;2022-12-18T15:26:08;21.63;;;12.80;;
39654;SDS011;25336;59.944;11.010;2022-12-18T15:33:37;20.77;;;12.57;;
39654;SDS011;25336;59.944;11.010;2022-12-18T15:36:05;16.88;;;9.68;;
39654;SDS011;25336;59.944;11.010;2022-12-18T15:38:35;14.50;;;8.07;;
39654;SDS011;25336;59.944;11.010;2022-12-18T15:41:01;21.70;;;7.93;;
39654;SDS011;25336;59.944;11.010;2022-12-18T15:43:27;15.55;;;9.38;;
39654;SDS011;25336;59.944;11.010;2022-12-18T15:46:06;13.50;;;7.20;;
39654;SDS011;25336;59.944;11.010;2022-12-18T15:48:41;8.73;;;5.25;;
39654;SDS011;25336;59.944;11.010;2022-12-18T15:51:26;10.82;;;5.93;;
39654;SDS011;25336;59.944;11.010;2022-12-18T15:53:58;13.90;;;7.03;;
39654;SDS011;25336;59.944;11.010;2022-12-18T15:56:26;11.07;;;7.40;;
39654;SDS011;25336;59.944;11.010;2022-12-18T15:59:11;17.15;;;11.95;;
39654;SDS011;25336;59.944;11.010;2022-12-18T16:01:42;20.33;;;10.98;;
39654;SDS011;25336;59.944;11.010;2022-12-18T16:04:12;47.45;;;27.02;;
39654;SDS011;25336;59.944;11.010;2022-12-18T16:06:39;46.58;;;23.95;;
39654;SDS011;25336;59.944;11.010;2022-12-18T16:09:05;39.03;;;19.52;;
39654;SDS011;25336;59.944;11.010;2022-12-18T16:11:32;27.73;;;15.63;;
39654;SDS011;25336;59.944;11.010;2022-12-18T16:14:23;21.90;;;9.57;;
39654;SDS011;25336;59.944;11.010;2022-12-18T16:16:58;11.18;;;7.38;;
39654;SDS011;25336;59.944;11.010;2022-12-18T16:19:25;12.38;;;6.65;;
39654;SDS011;25336;59.944;11.010;2022-12-18T16:21:52;16.08;;;9.77;;
39654;SDS011;25336;59.944;11.010;2022-12-18T16:24:20;20.08;;;13.00;;
39654;SDS011;25336;59.944;11.010;2022-12-18T16:26:48;21.83;;;16.02;;
39654;SDS011;25336;59.944;11.010;2022-12-18T16:29:16;36.53;;;22.83;;
39654;SDS011;25336;59.944;11.010;2022-12-18T16:31:42;24.60;;;14.75;;
39654;SDS011;25336;59.944;11.010;2022-12-18T16:34:18;19.35;;;13.48;;
39654;SDS011;25336;59.944;11.010;2022-12-18T16:36:51;15.80;;;12.30;;
39654;SDS011;25336;59.944;11.010;2022-12-18T16:39:18;16.60;;;11.55;;
39654;SDS011;25336;59.944;11.010;2022-12-18T16:41:44;14.75;;;9.75;;
39654;SDS011;25336;59.944;11.010;2022-12-18T16:44:10;20.60;;;10.35;;
39654;SDS011;25336;59.944;11.010;2022-12-18T16:46:37;21.45;;;10.88;;
39654;SDS011;25336;59.944;11.010;2022-12-18T16:49:03;13.63;;;10.23;;
39654;SDS011;25336;59.944;11.010;2022-12-18T16:51:30;34.05;;;17.20;;
39654;SDS011;25336;59.944;11.010;2022-12-18T16:53:56;28.65;;;16.35;;
39654;SDS011;25336;59.944;11.010;2022-12-18T16:56:23;36.17;;;20.67;;
39654;SDS011;25336;59.944;11.010;2022-12-18T16:58:50;54.78;;;26.48;;
39654;SDS011;25336;59.944;11.010;2022-12-18T17:01:20;73.65;;;33.85;;
39654;SDS011;25336;59.944;11.010;2022-12-18T17:03:59;50.22;;;22.38;;
39654;SDS011;25336;59.944;11.010;2022-12-18T17:06:29;24.73;;;15.20;;
39654;SDS011;25336;59.944;11.010;2022-12-18T17:08:57;25.38;;;11.75;;
39654;SDS011;25336;59.944;11.010;2022-12-18T17:11:24;21.27;;;11.77;;
39654;SDS011;25336;59.944;11.010;2022-12-18T17:13:51;22.63;;;12.95;;
39654;SDS011;25336;59.944;11.010;2022-12-18T17:16:17;21.77;;;13.52;;
39654;SDS011;25336;59.944;11.010;2022-12-18T17:18:43;22.33;;;13.15;;
39654;SDS011;25336;59.944;11.010;2022-12-18T17:21:09;26.60;;;13.65;;
39654;SDS011;25336;59.944;11.010;2022-12-18T17:23:36;20.40;;;11.98;;
39654;SDS011;25336;59.944;11.010;2022-12-18T17:26:02;19.50;;;11.05;;